sensor_id;sensor_type;location;lat;lon;timestamp;pressure;altitude;pressure_sealevel;temperature;humidity
84752;BME280;74978;37.772;-122.432;2024-03-06T00:00:31;101058.15;;;14.95;46.59
84752;BME280;74978;37.772;-122.432;2024-03-06T00:02:56;101056.75;;;12.86;50.42
84752;BME280;74978;37.772;-122.432;2024-03-06T00:05:22;101054.37;;;12.84;49.49
84752;BME280;74978;37.772;-122.432;2024-03-06T00:07:47;101049.26;;;13.61;50.27
84752;BME280;74978;37.772;-122.432;2024-03-06T00:10:13;101050.22;;;13.47;49.79
84752;BME280;74978;37.772;-122.432;2024-03-06T00:12:39;101047.24;;;11.72;53.35
84752;BME280;74978;37.772;-122.432;2024-03-06T00:15:04;101049.03;;;12.38;52.57
84752;BME280;74978;37.772;-122.432;2024-03-06T00:17:29;101046.43;;;11.99;52.65
84752;BME280;74978;37.772;-122.432;2024-03-06T00:19:55;101042.03;;;11.33;53.96
84752;BME280;74978;37.772;-122.432;2024-03-06T00:22:20;101038.60;;;12.10;51.32
84752;BME280;74978;37.772;-122.432;2024-03-06T00:24:46;101040.46;;;11.60;53.13
84752;BME280;74978;37.772;-122.432;2024-03-06T00:27:11;101027.13;;;12.06;50.84
84752;BME280;74978;37.772;-122.432;2024-03-06T00:29:37;101030.77;;;12.67;49.69
84752;BME280;74978;37.772;-122.432;2024-03-06T00:32:02;101029.81;;;13.37;50.09
84752;BME280;74978;37.772;-122.432;2024-03-06T00:34:28;101024.22;;;12.29;49.98
84752;BME280;74978;37.772;-122.432;2024-03-06T00:36:53;101027.25;;;13.77;49.03
84752;BME280;74978;37.772;-122.432;2024-03-06T00:39:19;101028.45;;;11.78;50.84
84752;BME280;74978;37.772;-122.432;2024-03-06T00:41:44;101022.29;;;13.11;49.10
84752;BME280;74978;37.772;-122.432;2024-03-06T00:44:10;101020.12;;;13.18;48.47
84752;BME280;74978;37.772;-122.432;2024-03-06T00:46:35;101015.60;;;12.82;48.92
84752;BME280;74978;37.772;-122.432;2024-03-06T00:49:29;101017.99;;;10.55;52.07
84752;BME280;74978;37.772;-122.432;2024-03-06T00:51:32;101012.90;;;11.59;51.34
84752;BME280;74978;37.772;-122.432;2024-03-06T00:53:58;101011.43;;;13.21;49.77
84752;BME280;74978;37.772;-122.432;2024-03-06T00:56:24;101005.53;;;13.76;48.85
84752;BME280;74978;37.772;-122.432;2024-03-06T00:58:49;101005.65;;;12.10;51.68
84752;BME280;74978;37.772;-122.432;2024-03-06T01:01:17;101004.25;;;12.05;51.98
84752;BME280;74978;37.772;-122.432;2024-03-06T01:03:46;100999.73;;;13.39;47.97
84752;BME280;74978;37.772;-122.432;2024-03-06T01:06:05;100998.28;;;14.26;47.77
84752;BME280;74978;37.772;-122.432;2024-03-06T01:08:31;100999.91;;;13.33;49.01
84752;BME280;74978;37.772;-122.432;2024-03-06T01:10:57;101002.01;;;12.69;50.87
84752;BME280;74978;37.772;-122.432;2024-03-06T01:13:24;101001.91;;;11.97;51.43
84752;BME280;74978;37.772;-122.432;2024-03-06T01:15:48;101001.49;;;13.15;48.77
84752;BME280;74978;37.772;-122.432;2024-03-06T01:18:13;101004.46;;;12.80;50.50
84752;BME280;74978;37.772;-122.432;2024-03-06T01:20:39;101006.24;;;11.64;51.10
84752;BME280;74978;37.772;-122.432;2024-03-06T01:23:05;101006.15;;;10.78;54.91
84752;BME280;74978;37.772;-122.432;2024-03-06T01:25:31;101007.07;;;11.22;53.86
84752;BME280;74978;37.772;-122.432;2024-03-06T01:27:55;101006.39;;;10.71;54.22
84752;BME280;74978;37.772;-122.432;2024-03-06T01:30:21;101008.31;;;10.41;55.10
84752;BME280;74978;37.772;-122.432;2024-03-06T01:32:47;101007.83;;;10.01;56.33
84752;BME280;74978;37.772;-122.432;2024-03-06T01:35:12;101011.69;;;10.29;56.32
84752;BME280;74978;37.772;-122.432;2024-03-06T01:37:38;101007.96;;;9.21;56.54
84752;BME280;74978;37.772;-122.432;2024-03-06T01:40:03;101002.68;;;9.96;56.23
84752;BME280;74978;37.772;-122.432;2024-03-06T01:42:29;101005.06;;;10.76;54.40
84752;BME280;74978;37.772;-122.432;2024-03-06T01:44:54;101002.57;;;11.04;54.12
84752;BME280;74978;37.772;-122.432;2024-03-06T01:47:20;100994.81;;;11.67;52.12
84752;BME280;74978;37.772;-122.432;2024-03-06T01:49:45;100996.92;;;11.03;53.27
84752;BME280;74978;37.772;-122.432;2024-03-06T01:52:13;100991.66;;;11.02;53.84
84752;BME280;74978;37.772;-122.432;2024-03-06T01:54:36;100988.21;;;9.38;55.01
84752;BME280;74978;37.772;-122.432;2024-03-06T01:57:02;100987.19;;;9.46;57.21
84752;BME280;74978;37.772;-122.432;2024-03-06T01:59:28;100984.68;;;9.74;57.71
84752;BME280;74978;37.772;-122.432;2024-03-06T02:01:54;100987.52;;;9.45;58.42
84752;BME280;74978;37.772;-122.432;2024-03-06T02:04:18;100982.66;;;9.98;55.78
84752;BME280;74978;37.772;-122.432;2024-03-06T02:06:44;100977.22;;;9.64;55.64
84752;BME280;74978;37.772;-122.432;2024-03-06T02:09:09;100974.63;;;10.64;54.08
84752;BME280;74978;37.772;-122.432;2024-03-06T02:11:35;100977.50;;;9.77;54.46
84752;BME280;74978;37.772;-122.432;2024-03-06T02:14:03;100973.94;;;11.16;52.90
84752;BME280;74978;37.772;-122.432;2024-03-06T02:16:26;100971.46;;;10.91;53.27
84752;BME280;74978;37.772;-122.432;2024-03-06T02:18:53;100966.37;;;11.20;52.66
84752;BME280;74978;37.772;-122.432;2024-03-06T02:21:17;100964.74;;;10.48;54.42
84752;BME280;74978;37.772;-122.432;2024-03-06T02:23:42;100967.85;;;9.98;53.53
84752;BME280;74978;37.772;-122.432;2024-03-06T02:26:10;100968.67;;;11.31;51.98
84752;BME280;74978;37.772;-122.432;2024-03-06T02:28:34;100970.95;;;10.68;51.67
84752;BME280;74978;37.772;-122.432;2024-03-06T02:30:59;100974.72;;;12.09;50.61
84752;BME280;74978;37.772;-122.432;2024-03-06T02:33:25;100978.86;;;12.06;50.41
84752;BME280;74978;37.772;-122.432;2024-03-06T02:35:50;100984.80;;;11.18;52.37
84752;BME280;74978;37.772;-122.432;2024-03-06T02:38:16;100986.69;;;10.75;52.76
84752;BME280;74978;37.772;-122.432;2024-03-06T02:40:43;100987.94;;;9.92;51.76
84752;BME280;74978;37.772;-122.432;2024-03-06T02:43:06;100992.77;;;12.88;48.59
84752;BME280;74978;37.772;-122.432;2024-03-06T02:45:32;100992.60;;;10.88;50.59
84752;BME280;74978;37.772;-122.432;2024-03-06T02:47:57;100994.65;;;12.08;49.78
84752;BME280;74978;37.772;-122.432;2024-03-06T02:50:23;101003.15;;;11.73;51.34
84752;BME280;74978;37.772;-122.432;2024-03-06T02:52:48;101001.42;;;11.28;51.60
84752;BME280;74978;37.772;-122.432;2024-03-06T02:55:14;101000.90;;;11.29;51.42
84752;BME280;74978;37.772;-122.432;2024-03-06T02:57:39;100998.86;;;11.04;50.44
84752;BME280;74978;37.772;-122.432;2024-03-06T03:00:05;100998.55;;;12.12;49.72
84752;BME280;74978;37.772;-122.432;2024-03-06T03:02:30;100997.25;;;12.37;49.77
84752;BME280;74978;37.772;-122.432;2024-03-06T03:04:55;100994.66;;;12.11;49.35
84752;BME280;74978;37.772;-122.432;2024-03-06T03:07:20;100990.21;;;12.92;48.40
84752;BME280;74978;37.772;-122.432;2024-03-06T03:09:46;100989.94;;;11.95;49.83
84752;BME280;74978;37.772;-122.432;2024-03-06T03:12:12;100986.83;;;12.92;48.20
84752;BME280;74978;37.772;-122.432;2024-03-06T03:14:37;100983.64;;;11.29;49.19
84752;BME280;74978;37.772;-122.432;2024-03-06T03:17:02;100980.00;;;12.89;47.21
84752;BME280;74978;37.772;-122.432;2024-03-06T03:19:28;100981.09;;;13.02;47.45
84752;BME280;74978;37.772;-122.432;2024-03-06T03:21:53;100982.53;;;11.34;48.64
84752;BME280;74978;37.772;-122.432;2024-03-06T03:24:19;100986.50;;;10.21;52.89
84752;BME280;74978;37.772;-122.432;2024-03-06T03:26:46;100992.11;;;9.92;52.54
84752;BME280;74978;37.772;-122.432;2024-03-06T03:29:10;100992.71;;;11.15;51.23
84752;BME280;74978;37.772;-122.432;2024-03-06T03:31:36;100994.64;;;9.82;51.52
84752;BME280;74978;37.772;-122.432;2024-03-06T03:34:01;100995.09;;;10.58;51.09
84752;BME280;74978;37.772;-122.432;2024-03-06T03:36:26;100991.56;;;11.18;51.03
84752;BME280;74978;37.772;-122.432;2024-03-06T03:38:52;100989.14;;;10.72;50.76
84752;BME280;74978;37.772;-122.432;2024-03-06T03:41:18;100986.96;;;11.60;49.38
84752;BME280;74978;37.772;-122.432;2024-03-06T03:43:43;100990.39;;;11.63;47.72
84752;BME280;74978;37.772;-122.432;2024-03-06T03:46:09;100989.93;;;11.56;48.93
84752;BME280;74978;37.772;-122.432;2024-03-06T03:48:34;100985.38;;;11.56;47.00
84752;BME280;74978;37.772;-122.432;2024-03-06T03:51:01;100979.38;;;12.62;46.38
84752;BME280;74978;37.772;-122.432;2024-03-06T03:53:26;100974.27;;;12.83;45.68
84752;BME280;74978;37.772;-122.432;2024-03-06T03:55:51;100971.52;;;13.85;44.11
84752;BME280;74978;37.772;-122.432;2024-03-06T03:58:17;100967.75;;;13.52;44.55
84752;BME280;74978;37.772;-122.432;2024-03-06T04:00:43;100969.28;;;14.12;41.90
84752;BME280;74978;37.772;-122.432;2024-03-06T04:03:08;100965.19;;;15.99;40.35
84752;BME280;74978;37.772;-122.432;2024-03-06T04:05:33;100964.43;;;13.39;42.37
84752;BME280;74978;37.772;-122.432;2024-03-06T04:07:58;100962.68;;;15.72;40.60
84752;BME280;74978;37.772;-122.432;2024-03-06T04:10:24;100956.31;;;16.60;39.74
84752;BME280;74978;37.772;-122.432;2024-03-06T04:12:50;100955.02;;;14.77;42.81
84752;BME280;74978;37.772;-122.432;2024-03-06T04:15:15;100955.49;;;14.79;42.83
84752;BME280;74978;37.772;-122.432;2024-03-06T04:17:40;100956.46;;;14.91;41.16
84752;BME280;74978;37.772;-122.432;2024-03-06T04:20:06;100961.32;;;15.27;42.09
84752;BME280;74978;37.772;-122.432;2024-03-06T04:22:31;100961.95;;;13.62;43.68
84752;BME280;74978;37.772;-122.432;2024-03-06T04:24:57;100970.16;;;13.03;45.36
84752;BME280;74978;37.772;-122.432;2024-03-06T04:27:24;100973.66;;;12.49;46.57
84752;BME280;74978;37.772;-122.432;2024-03-06T04:29:48;100975.01;;;11.31;49.43
84752;BME280;74978;37.772;-122.432;2024-03-06T04:32:13;100975.46;;;12.77;48.79
84752;BME280;74978;37.772;-122.432;2024-03-06T04:34:39;100976.91;;;11.73;47.69
84752;BME280;74978;37.772;-122.432;2024-03-06T04:37:04;100979.06;;;12.54;48.36
84752;BME280;74978;37.772;-122.432;2024-03-06T04:39:30;100980.30;;;9.76;54.04
84752;BME280;74978;37.772;-122.432;2024-03-06T04:41:55;100980.27;;;11.75;50.94
84752;BME280;74978;37.772;-122.432;2024-03-06T04:44:21;100972.95;;;12.90;48.90
84752;BME280;74978;37.772;-122.432;2024-03-06T04:46:49;100975.30;;;11.03;50.08
84752;BME280;74978;37.772;-122.432;2024-03-06T04:49:11;100979.71;;;10.22;52.55
84752;BME280;74978;37.772;-122.432;2024-03-06T04:51:37;100975.66;;;10.90;50.82
84752;BME280;74978;37.772;-122.432;2024-03-06T04:54:02;100973.26;;;10.89;52.81
84752;BME280;74978;37.772;-122.432;2024-03-06T04:56:28;100968.58;;;11.98;50.27
84752;BME280;74978;37.772;-122.432;2024-03-06T04:58:53;100971.10;;;10.88;51.95
84752;BME280;74978;37.772;-122.432;2024-03-06T05:01:19;100971.52;;;10.94;53.01
84752;BME280;74978;37.772;-122.432;2024-03-06T05:03:45;100974.82;;;10.52;53.98
84752;BME280;74978;37.772;-122.432;2024-03-06T05:06:10;100970.76;;;9.78;54.96
84752;BME280;74978;37.772;-122.432;2024-03-06T05:08:35;100970.37;;;9.42;55.20
84752;BME280;74978;37.772;-122.432;2024-03-06T05:11:01;100968.33;;;10.15;55.65
84752;BME280;74978;37.772;-122.432;2024-03-06T05:13:27;100967.52;;;9.07;57.94
84752;BME280;74978;37.772;-122.432;2024-03-06T05:15:52;100966.25;;;10.54;55.51
84752;BME280;74978;37.772;-122.432;2024-03-06T05:18:18;100966.94;;;11.01;54.70
84752;BME280;74978;37.772;-122.432;2024-03-06T05:20:42;100965.96;;;11.13;52.24
84752;BME280;74978;37.772;-122.432;2024-03-06T05:23:08;100968.99;;;10.25;54.76
84752;BME280;74978;37.772;-122.432;2024-03-06T05:25:34;100966.12;;;8.92;56.37
84752;BME280;74978;37.772;-122.432;2024-03-06T05:28:01;100966.13;;;10.99;54.10
84752;BME280;74978;37.772;-122.432;2024-03-06T05:30:25;100965.97;;;11.60;52.61
84752;BME280;74978;37.772;-122.432;2024-03-06T05:32:50;100969.21;;;10.20;54.60
84752;BME280;74978;37.772;-122.432;2024-03-06T05:35:15;100963.07;;;12.02;51.39
84752;BME280;74978;37.772;-122.432;2024-03-06T05:37:43;100964.13;;;11.18;52.49
84752;BME280;74978;37.772;-122.432;2024-03-06T05:40:08;100963.23;;;11.52;52.14
84752;BME280;74978;37.772;-122.432;2024-03-06T05:42:32;100960.43;;;11.79;51.33
84752;BME280;74978;37.772;-122.432;2024-03-06T05:44:58;100960.34;;;10.15;55.37
84752;BME280;74978;37.772;-122.432;2024-03-06T05:47:23;100963.69;;;10.74;54.61
84752;BME280;74978;37.772;-122.432;2024-03-06T05:49:49;100957.79;;;11.80;51.51
84752;BME280;74978;37.772;-122.432;2024-03-06T05:52:15;100957.19;;;13.62;48.21
84752;BME280;74978;37.772;-122.432;2024-03-06T05:54:40;100953.02;;;13.07;46.91
84752;BME280;74978;37.772;-122.432;2024-03-06T05:57:06;100954.30;;;14.39;46.98
84752;BME280;74978;37.772;-122.432;2024-03-06T05:59:31;100954.66;;;13.42;47.87
84752;BME280;74978;37.772;-122.432;2024-03-06T06:01:56;100952.00;;;13.29;47.58
84752;BME280;74978;37.772;-122.432;2024-03-06T06:04:23;100949.42;;;12.25;51.13
84752;BME280;74978;37.772;-122.432;2024-03-06T06:06:46;100944.20;;;13.42;48.08
84752;BME280;74978;37.772;-122.432;2024-03-06T06:09:12;100941.15;;;14.33;46.37
84752;BME280;74978;37.772;-122.432;2024-03-06T06:11:38;100938.50;;;13.17;47.14
84752;BME280;74978;37.772;-122.432;2024-03-06T06:14:03;100938.58;;;13.49;47.47
84752;BME280;74978;37.772;-122.432;2024-03-06T06:16:35;100939.66;;;14.61;45.93
84752;BME280;74978;37.772;-122.432;2024-03-06T06:18:54;100936.64;;;14.19;45.24
84752;BME280;74978;37.772;-122.432;2024-03-06T06:21:20;100933.73;;;16.13;42.64
84752;BME280;74978;37.772;-122.432;2024-03-06T06:23:51;100933.29;;;15.59;43.18
84752;BME280;74978;37.772;-122.432;2024-03-06T06:26:11;100928.31;;;14.62;45.41
84752;BME280;74978;37.772;-122.432;2024-03-06T06:28:37;100930.39;;;13.69;45.56
84752;BME280;74978;37.772;-122.432;2024-03-06T06:31:02;100930.45;;;14.34;45.80
84752;BME280;74978;37.772;-122.432;2024-03-06T06:33:28;100931.12;;;13.94;46.96
84752;BME280;74978;37.772;-122.432;2024-03-06T06:35:53;100932.67;;;13.41;46.60
84752;BME280;74978;37.772;-122.432;2024-03-06T06:38:19;100934.78;;;14.10;46.31
84752;BME280;74978;37.772;-122.432;2024-03-06T06:40:45;100933.79;;;12.57;48.21
84752;BME280;74978;37.772;-122.432;2024-03-06T06:43:11;100931.72;;;13.69;46.89
84752;BME280;74978;37.772;-122.432;2024-03-06T06:45:36;100933.90;;;12.29;48.55
84752;BME280;74978;37.772;-122.432;2024-03-06T06:48:01;100934.47;;;13.02;48.82
84752;BME280;74978;37.772;-122.432;2024-03-06T06:50:27;100931.89;;;13.50;48.02
84752;BME280;74978;37.772;-122.432;2024-03-06T06:52:53;100933.89;;;13.04;48.04
84752;BME280;74978;37.772;-122.432;2024-03-06T06:55:18;100937.57;;;13.53;47.95
84752;BME280;74978;37.772;-122.432;2024-03-06T06:57:44;100938.47;;;13.61;47.86
84752;BME280;74978;37.772;-122.432;2024-03-06T07:00:10;100941.58;;;12.83;48.29
84752;BME280;74978;37.772;-122.432;2024-03-06T07:02:34;100944.53;;;12.66;47.01
84752;BME280;74978;37.772;-122.432;2024-03-06T07:05:00;100939.43;;;13.81;46.51
84752;BME280;74978;37.772;-122.432;2024-03-06T07:07:26;100947.39;;;13.15;48.58
84752;BME280;74978;37.772;-122.432;2024-03-06T07:09:51;100953.55;;;10.95;51.27
84752;BME280;74978;37.772;-122.432;2024-03-06T07:12:17;100948.08;;;11.81;50.67
84752;BME280;74978;37.772;-122.432;2024-03-06T07:14:42;100947.11;;;11.87;48.86
84752;BME280;74978;37.772;-122.432;2024-03-06T07:17:07;100945.58;;;11.93;50.12
84752;BME280;74978;37.772;-122.432;2024-03-06T07:19:33;100943.57;;;11.20;50.31
84752;BME280;74978;37.772;-122.432;2024-03-06T07:21:58;100941.61;;;12.51;49.16
84752;BME280;74978;37.772;-122.432;2024-03-06T07:24:24;100945.24;;;12.81;49.92
84752;BME280;74978;37.772;-122.432;2024-03-06T07:26:50;100944.30;;;13.69;49.42
84752;BME280;74978;37.772;-122.432;2024-03-06T07:29:15;100945.92;;;12.74;51.08
84752;BME280;74978;37.772;-122.432;2024-03-06T07:31:41;100942.79;;;13.64;49.10
84752;BME280;74978;37.772;-122.432;2024-03-06T07:34:07;100941.01;;;12.92;51.16
84752;BME280;74978;37.772;-122.432;2024-03-06T07:36:31;100943.32;;;12.73;51.86
84752;BME280;74978;37.772;-122.432;2024-03-06T07:38:57;100942.85;;;12.71;52.38
84752;BME280;74978;37.772;-122.432;2024-03-06T07:41:23;100941.79;;;11.77;54.61
84752;BME280;74978;37.772;-122.432;2024-03-06T07:43:48;100940.09;;;11.69;54.50
84752;BME280;74978;37.772;-122.432;2024-03-06T07:46:14;100942.41;;;11.54;54.36
84752;BME280;74978;37.772;-122.432;2024-03-06T07:48:42;100938.92;;;11.43;55.08
84752;BME280;74978;37.772;-122.432;2024-03-06T07:51:05;100938.18;;;11.86;53.52
84752;BME280;74978;37.772;-122.432;2024-03-06T07:53:31;100938.94;;;12.87;51.80
84752;BME280;74978;37.772;-122.432;2024-03-06T07:55:56;100938.36;;;11.46;53.89
84752;BME280;74978;37.772;-122.432;2024-03-06T07:58:22;100935.56;;;11.44;54.05
84752;BME280;74978;37.772;-122.432;2024-03-06T08:00:48;100932.34;;;13.35;49.44
84752;BME280;74978;37.772;-122.432;2024-03-06T08:03:12;100935.29;;;14.51;47.38
84752;BME280;74978;37.772;-122.432;2024-03-06T08:05:38;100934.78;;;10.72;52.31
84752;BME280;74978;37.772;-122.432;2024-03-06T08:08:04;100939.43;;;11.28;53.77
84752;BME280;74978;37.772;-122.432;2024-03-06T08:10:28;100938.32;;;11.04;53.58
84752;BME280;74978;37.772;-122.432;2024-03-06T08:12:54;100942.27;;;12.00;52.27
84752;BME280;74978;37.772;-122.432;2024-03-06T08:15:19;100937.95;;;11.99;52.59
84752;BME280;74978;37.772;-122.432;2024-03-06T08:17:45;100933.91;;;11.73;50.59
84752;BME280;74978;37.772;-122.432;2024-03-06T08:20:11;100929.21;;;14.11;47.80
84752;BME280;74978;37.772;-122.432;2024-03-06T08:22:37;100928.86;;;14.95;46.79
84752;BME280;74978;37.772;-122.432;2024-03-06T08:25:02;100929.01;;;14.21;47.45
84752;BME280;74978;37.772;-122.432;2024-03-06T08:27:27;100929.10;;;15.14;46.60
84752;BME280;74978;37.772;-122.432;2024-03-06T08:29:52;100928.89;;;14.87;46.10
84752;BME280;74978;37.772;-122.432;2024-03-06T08:32:18;100926.94;;;13.85;47.53
84752;BME280;74978;37.772;-122.432;2024-03-06T08:34:43;100929.76;;;13.92;46.69
84752;BME280;74978;37.772;-122.432;2024-03-06T08:37:09;100928.08;;;15.00;44.79
84752;BME280;74978;37.772;-122.432;2024-03-06T08:39:34;100925.52;;;11.51;49.98
84752;BME280;74978;37.772;-122.432;2024-03-06T08:42:00;100925.23;;;12.52;49.94
84752;BME280;74978;37.772;-122.432;2024-03-06T08:44:26;100925.62;;;13.05;50.75
84752;BME280;74978;37.772;-122.432;2024-03-06T08:46:51;100922.49;;;13.98;47.80
84752;BME280;74978;37.772;-122.432;2024-03-06T08:49:17;100922.21;;;13.13;49.65
84752;BME280;74978;37.772;-122.432;2024-03-06T08:51:42;100924.07;;;13.78;47.72
84752;BME280;74978;37.772;-122.432;2024-03-06T08:54:08;100922.96;;;15.52;45.25
84752;BME280;74978;37.772;-122.432;2024-03-06T08:56:33;100919.52;;;14.01;46.09
84752;BME280;74978;37.772;-122.432;2024-03-06T08:58:59;100917.53;;;13.29;49.70
84752;BME280;74978;37.772;-122.432;2024-03-06T09:01:25;100915.58;;;11.44;53.35
84752;BME280;74978;37.772;-122.432;2024-03-06T09:03:51;100916.23;;;12.09;52.56
84752;BME280;74978;37.772;-122.432;2024-03-06T09:06:16;100909.41;;;12.44;52.90
84752;BME280;74978;37.772;-122.432;2024-03-06T09:08:41;100906.39;;;11.21;53.34
84752;BME280;74978;37.772;-122.432;2024-03-06T09:11:07;100906.52;;;12.30;52.40
84752;BME280;74978;37.772;-122.432;2024-03-06T09:13:32;100905.93;;;10.82;53.53
84752;BME280;74978;37.772;-122.432;2024-03-06T09:15:58;100903.06;;;12.33;53.13
84752;BME280;74978;37.772;-122.432;2024-03-06T09:18:24;100904.91;;;12.01;54.18
84752;BME280;74978;37.772;-122.432;2024-03-06T09:20:49;100904.85;;;11.55;54.34
84752;BME280;74978;37.772;-122.432;2024-03-06T09:23:15;100903.97;;;11.41;54.91
84752;BME280;74978;37.772;-122.432;2024-03-06T09:25:41;100900.98;;;10.20;54.59
84752;BME280;74978;37.772;-122.432;2024-03-06T09:28:06;100897.89;;;11.80;54.25
84752;BME280;74978;37.772;-122.432;2024-03-06T09:30:31;100891.24;;;12.13;53.19
84752;BME280;74978;37.772;-122.432;2024-03-06T09:32:57;100890.32;;;12.88;51.55
84752;BME280;74978;37.772;-122.432;2024-03-06T09:35:22;100889.80;;;12.19;52.47
84752;BME280;74978;37.772;-122.432;2024-03-06T09:37:48;100887.29;;;11.66;54.63
84752;BME280;74978;37.772;-122.432;2024-03-06T09:40:20;100885.86;;;11.70;54.64
84752;BME280;74978;37.772;-122.432;2024-03-06T09:42:39;100883.37;;;10.94;53.59
84752;BME280;74978;37.772;-122.432;2024-03-06T09:45:05;100885.67;;;12.02;53.09
84752;BME280;74978;37.772;-122.432;2024-03-06T09:47:32;100883.42;;;12.97;52.52
84752;BME280;74978;37.772;-122.432;2024-03-06T09:49:56;100881.05;;;13.23;51.22
84752;BME280;74978;37.772;-122.432;2024-03-06T09:52:27;100879.52;;;12.50;52.77
84752;BME280;74978;37.772;-122.432;2024-03-06T09:54:47;100873.23;;;11.61;54.51
84752;BME280;74978;37.772;-122.432;2024-03-06T09:57:12;100871.84;;;12.14;54.92
84752;BME280;74978;37.772;-122.432;2024-03-06T09:59:38;100870.38;;;11.37;54.40
84752;BME280;74978;37.772;-122.432;2024-03-06T10:02:10;100867.74;;;11.89;54.40
84752;BME280;74978;37.772;-122.432;2024-03-06T10:04:32;100862.29;;;12.90;51.94
84752;BME280;74978;37.772;-122.432;2024-03-06T10:06:56;100857.80;;;11.33;54.65
84752;BME280;74978;37.772;-122.432;2024-03-06T10:09:20;100850.61;;;11.90;54.13
84752;BME280;74978;37.772;-122.432;2024-03-06T10:11:46;100849.20;;;11.22;55.54
84752;BME280;74978;37.772;-122.432;2024-03-06T10:14:12;100843.23;;;12.50;53.05
84752;BME280;74978;37.772;-122.432;2024-03-06T10:16:37;100838.80;;;10.66;54.63
84752;BME280;74978;37.772;-122.432;2024-03-06T10:21:31;100829.97;;;11.50;55.52
84752;BME280;74978;37.772;-122.432;2024-03-06T10:23:58;100827.87;;;12.59;53.86
84752;BME280;74978;37.772;-122.432;2024-03-06T10:26:19;100823.43;;;12.11;54.28
84752;BME280;74978;37.772;-122.432;2024-03-06T10:28:45;100822.52;;;11.52;56.92
84752;BME280;74978;37.772;-122.432;2024-03-06T10:31:10;100818.84;;;11.16;57.95
84752;BME280;74978;37.772;-122.432;2024-03-06T10:33:36;100814.26;;;10.14;58.25
84752;BME280;74978;37.772;-122.432;2024-03-06T10:36:01;100810.64;;;11.20;57.22
84752;BME280;74978;37.772;-122.432;2024-03-06T10:38:29;100809.93;;;11.09;57.15
84752;BME280;74978;37.772;-122.432;2024-03-06T10:40:53;100808.67;;;11.44;56.69
84752;BME280;74978;37.772;-122.432;2024-03-06T10:43:18;100803.87;;;11.29;56.68
84752;BME280;74978;37.772;-122.432;2024-03-06T10:45:47;100802.18;;;11.13;56.69
84752;BME280;74978;37.772;-122.432;2024-03-06T10:48:09;100801.60;;;11.11;57.31
84752;BME280;74978;37.772;-122.432;2024-03-06T10:50:36;100797.61;;;10.61;56.72
84752;BME280;74978;37.772;-122.432;2024-03-06T10:53:01;100793.12;;;11.43;55.88
84752;BME280;74978;37.772;-122.432;2024-03-06T10:55:29;100794.59;;;10.67;58.08
84752;BME280;74978;37.772;-122.432;2024-03-06T10:57:53;100790.75;;;11.06;58.42
84752;BME280;74978;37.772;-122.432;2024-03-06T11:00:18;100788.54;;;10.47;60.51
84752;BME280;74978;37.772;-122.432;2024-03-06T11:02:46;100785.67;;;9.64;61.06
84752;BME280;74978;37.772;-122.432;2024-03-06T11:05:09;100782.84;;;10.16;60.77
84752;BME280;74978;37.772;-122.432;2024-03-06T11:07:34;100782.99;;;9.03;61.20
84752;BME280;74978;37.772;-122.432;2024-03-06T11:10:00;100781.53;;;9.44;61.85
84752;BME280;74978;37.772;-122.432;2024-03-06T11:12:33;100781.05;;;9.68;62.08
84752;BME280;74978;37.772;-122.432;2024-03-06T11:14:52;100779.05;;;10.13;62.38
84752;BME280;74978;37.772;-122.432;2024-03-06T11:17:16;100776.40;;;9.57;64.16
84752;BME280;74978;37.772;-122.432;2024-03-06T11:22:08;100773.46;;;9.87;63.19
84752;BME280;74978;37.772;-122.432;2024-03-06T11:24:33;100772.11;;;9.40;63.84
84752;BME280;74978;37.772;-122.432;2024-03-06T11:27:01;100769.65;;;9.55;65.10
84752;BME280;74978;37.772;-122.432;2024-03-06T11:29:26;100769.54;;;9.70;64.82
84752;BME280;74978;37.772;-122.432;2024-03-06T11:32:00;100769.45;;;9.85;64.09
84752;BME280;74978;37.772;-122.432;2024-03-06T11:34:15;100765.25;;;9.84;64.63
84752;BME280;74978;37.772;-122.432;2024-03-06T11:36:41;100765.54;;;8.89;63.86
84752;BME280;74978;37.772;-122.432;2024-03-06T11:39:07;100764.84;;;10.54;63.11
84752;BME280;74978;37.772;-122.432;2024-03-06T11:41:45;100765.64;;;9.92;62.76
84752;BME280;74978;37.772;-122.432;2024-03-06T11:44:01;100764.34;;;10.43;62.42
84752;BME280;74978;37.772;-122.432;2024-03-06T11:46:41;100762.98;;;10.66;62.59
84752;BME280;74978;37.772;-122.432;2024-03-06T11:48:53;100757.86;;;9.71;63.58
84752;BME280;74978;37.772;-122.432;2024-03-06T11:51:15;100753.92;;;9.49;64.83
84752;BME280;74978;37.772;-122.432;2024-03-06T11:53:39;100754.05;;;10.62;63.12
84752;BME280;74978;37.772;-122.432;2024-03-06T11:56:06;100750.44;;;9.55;64.24
84752;BME280;74978;37.772;-122.432;2024-03-06T11:58:30;100748.95;;;10.11;63.51
84752;BME280;74978;37.772;-122.432;2024-03-06T12:00:56;100740.72;;;9.72;63.57
84752;BME280;74978;37.772;-122.432;2024-03-06T12:03:23;100736.44;;;9.64;64.78
84752;BME280;74978;37.772;-122.432;2024-03-06T12:05:50;100735.10;;;9.42;65.16
84752;BME280;74978;37.772;-122.432;2024-03-06T12:08:13;100733.03;;;10.12;63.51
84752;BME280;74978;37.772;-122.432;2024-03-06T12:10:39;100733.44;;;8.81;64.48
84752;BME280;74978;37.772;-122.432;2024-03-06T12:13:04;100728.00;;;9.65;66.42
84752;BME280;74978;37.772;-122.432;2024-03-06T12:15:30;100725.31;;;9.44;66.08